Time;durP1;ratioP1;P1;durP2;ratioP2;P2;SDS_P1;SDS_P2;PMS_P1;PMS_P2;Temp;Humidity;BMP_temperature;BMP_pressure;BME280_temperature;BME280_humidity;BME280_pressure;Samples;Min_cycle;Max_cycle;Signal;HPM_P1;HPM_P2
2021/05/26 00:01:54;;;;;;;7.25;2.20;;;7.80;99.90;;;;;;4617314;31;20527;-77
2021/05/26 00:04:20;;;;;;;7.65;2.53;;;7.90;99.90;;;;;;4616947;31;20047;-76
2021/05/26 00:06:46;;;;;;;9.00;2.00;;;7.70;99.90;;;;;;4618372;31;20052;-77
2021/05/26 00:09:12;;;;;;;12.18;2.63;;;7.70;99.90;;;;;;4618433;31;20055;-77
2021/05/26 00:11:37;;;;;;;6.32;2.58;;;7.70;99.90;;;;;;4618253;31;20052;-77
2021/05/26 00:14:03;;;;;;;8.65;2.20;;;7.70;99.90;;;;;;4618157;31;20103;-76
2021/05/26 00:16:30;;;;;;;9.13;2.40;;;7.70;99.90;;;;;;4618215;31;20054;-77
2021/05/26 00:18:57;;;;;;;8.50;2.33;;;7.70;99.90;;;;;;4618108;31;20083;-76
2021/05/26 00:21:24;;;;;;;9.05;2.50;;;7.70;99.90;;;;;;4617721;31;20055;-76
2021/05/26 00:23:50;;;;;;;11.02;2.95;;;7.70;99.90;;;;;;4618026;31;20052;-77
2021/05/26 00:26:18;;;;;;;4.80;1.90;;;7.70;99.90;;;;;;4602982;31;20124;-77
2021/05/26 00:28:46;;;;;;;9.07;2.25;;;7.70;99.90;;;;;;4618581;31;20036;-77
2021/05/26 00:31:20;;;;;;;7.38;2.08;;;7.70;99.90;;;;;;4618241;31;20066;-77
2021/05/26 00:33:48;;;;;;;3.80;1.90;;;7.60;99.90;;;;;;4617015;31;20247;-76
2021/05/26 00:36:14;;;;;;;8.00;2.55;;;7.60;99.90;;;;;;4617720;31;20138;-77
2021/05/26 00:38:40;;;;;;;7.53;2.35;;;7.60;99.90;;;;;;4618225;31;20509;-77
2021/05/26 00:41:06;;;;;;;8.07;2.47;;;7.50;99.90;;;;;;4618034;31;20036;-77
2021/05/26 00:43:32;;;;;;;10.25;2.45;;;7.50;99.90;;;;;;4618046;31;20107;-77
2021/05/26 00:45:58;;;;;;;5.78;2.05;;;7.50;99.90;;;;;;4617994;31;20410;-77
2021/05/26 00:48:23;;;;;;;8.43;2.35;;;7.50;99.90;;;;;;4602695;31;20048;-76
2021/05/26 00:50:49;;;;;;;7.07;2.42;;;7.50;99.90;;;;;;4617576;31;20135;-77
2021/05/26 00:53:16;;;;;;;5.68;2.33;;;7.40;99.90;;;;;;4617777;31;20044;-77
2021/05/26 00:55:44;;;;;;;7.00;2.58;;;7.40;99.90;;;;;;4618056;31;20134;-76
2021/05/26 00:58:11;;;;;;;12.55;2.40;;;7.40;99.90;;;;;;4602810;31;20051;-77
2021/05/26 01:00:41;;;;;;;4.47;1.95;;;7.40;99.90;;;;;;4617793;31;20178;-76
2021/05/26 01:03:07;;;;;;;7.50;2.42;;;7.40;99.90;;;;;;4617991;31;20146;-76
2021/05/26 01:05:34;;;;;;;9.82;2.72;;;7.40;99.90;;;;;;4617459;31;20056;-76
2021/05/26 01:08:00;;;;;;;4.68;1.90;;;7.40;99.90;;;;;;4617941;31;20043;-77
2021/05/26 01:10:28;;;;;;;8.77;2.63;;;7.40;99.90;;;;;;4616852;31;20044;-77
2021/05/26 01:12:55;;;;;;;8.73;2.58;;;7.30;99.90;;;;;;4616388;31;20169;-77
2021/05/26 01:15:22;;;;;;;8.30;2.63;;;7.10;99.90;;;;;;4602671;31;20055;-77
2021/05/26 01:17:48;;;;;;;7.68;2.42;;;7.10;99.90;;;;;;4617757;31;20039;-77
2021/05/26 01:20:26;;;;;;;10.48;2.63;;;7.20;99.90;;;;;;4617419;31;20040;-76
2021/05/26 01:22:53;;;;;;;8.55;2.50;;;7.20;99.90;;;;;;4617942;31;20083;-76
2021/05/26 01:25:19;;;;;;;7.18;2.30;;;7.20;99.90;;;;;;4617412;31;20055;-76
2021/05/26 01:27:46;;;;;;;10.25;2.65;;;7.30;99.90;;;;;;4617304;31;20070;-76
2021/05/26 01:30:13;;;;;;;6.93;2.20;;;7.20;99.90;;;;;;4616470;31;20054;-76
2021/05/26 01:32:57;;;;;;;6.90;2.40;;;7.10;99.90;;;;;;4616899;31;20055;-76
2021/05/26 01:35:23;;;;;;;10.75;2.30;;;7.10;99.90;;;;;;4617295;31;20052;-76
2021/05/26 01:37:48;;;;;;;7.03;2.08;;;7.10;99.90;;;;;;4616618;31;20068;-76
2021/05/26 01:40:18;;;;;;;8.65;2.50;;;7.10;99.90;;;;;;4601929;31;20043;-76
2021/05/26 01:42:45;;;;;;;7.85;2.28;;;7.00;99.90;;;;;;4615609;31;20048;-77
2021/05/26 01:45:12;;;;;;;8.93;2.70;;;7.00;99.90;;;;;;4615685;31;20055;-77
2021/05/26 01:47:39;;;;;;;7.72;2.97;;;7.00;99.90;;;;;;4616740;31;20062;-77
2021/05/26 01:50:06;;;;;;;7.85;2.42;;;7.00;99.90;;;;;;4616845;31;20078;-76
2021/05/26 01:52:32;;;;;;;9.38;2.30;;;7.00;99.90;;;;;;4615528;31;20082;-76
2021/05/26 01:54:58;;;;;;;7.90;2.17;;;7.00;99.90;;;;;;4616704;31;20527;-76
2021/05/26 01:57:24;;;;;;;10.23;2.40;;;7.10;99.90;;;;;;4616463;31;20055;-77
2021/05/26 01:59:50;;;;;;;10.50;2.80;;;7.10;99.90;;;;;;4616328;31;20050;-77
2021/05/26 02:02:16;;;;;;;11.48;2.17;;;7.00;99.90;;;;;;4617114;31;20059;-77
2021/05/26 02:04:41;;;;;;;5.45;2.00;;;7.00;99.90;;;;;;4616103;31;20107;-76
2021/05/26 02:07:13;;;;;;;12.07;2.17;;;7.10;99.90;;;;;;4616577;31;20052;-77
2021/05/26 02:09:39;;;;;;;;;;;7.00;99.90;;;;;;4602012;31;20122;-76
2021/05/26 02:12:24;;;;;;;18.70;2.55;;;7.00;99.90;;;;;;4615288;31;20286;-77
2021/05/26 02:14:54;;;;;;;6.03;2.25;;;7.00;99.90;;;;;;4601238;31;20094;-77
2021/05/26 02:17:21;;;;;;;8.98;2.33;;;6.90;99.90;;;;;;4615717;31;20412;-77
2021/05/26 02:19:50;;;;;;;9.95;2.33;;;6.90;99.90;;;;;;4600971;31;20052;-77
2021/05/26 02:22:17;;;;;;;6.78;2.10;;;6.90;99.90;;;;;;4616159;31;20401;-77
2021/05/26 02:24:44;;;;;;;9.88;2.67;;;6.90;99.90;;;;;;4616275;31;20501;-76
2021/05/26 02:27:10;;;;;;;9.05;2.53;;;6.90;99.90;;;;;;4601354;31;20052;-76
2021/05/26 02:29:36;;;;;;;7.13;2.13;;;6.70;99.90;;;;;;4614904;31;20055;-77
2021/05/26 02:32:04;;;;;;;10.88;2.75;;;6.80;99.90;;;;;;4601323;31;20043;-77
2021/05/26 02:34:30;;;;;;;7.63;2.70;;;6.80;99.90;;;;;;4616137;31;20052;-76
2021/05/26 02:37:00;;;;;;;6.75;2.33;;;6.80;99.90;;;;;;4616021;31;20062;-77
2021/05/26 02:39:26;;;;;;;8.43;2.45;;;6.80;99.90;;;;;;4616140;31;20059;-77
2021/05/26 02:41:54;;;;;;;11.55;3.38;;;6.80;99.90;;;;;;4616422;31;20131;-77
2021/05/26 02:44:20;;;;;;;11.60;2.75;;;6.70;99.90;;;;;;4615895;31;20059;-76
2021/05/26 02:46:47;;;;;;;5.72;2.13;;;6.80;99.90;;;;;;4616209;31;20059;-77
2021/05/26 02:49:13;;;;;;;7.97;2.70;;;6.80;99.90;;;;;;4616793;31;20040;-77
2021/05/26 02:51:39;;;;;;;4.85;1.90;;;6.80;99.90;;;;;;4619545;31;20048;-76
2021/05/26 02:54:07;;;;;;;8.13;2.35;;;6.80;99.90;;;;;;4618305;31;20103;-77
2021/05/26 02:56:35;;;;;;;10.50;2.83;;;6.80;99.90;;;;;;4619222;31;20047;-76
2021/05/26 02:59:03;;;;;;;9.38;2.70;;;6.70;99.90;;;;;;4619975;31;20110;-77
2021/05/26 03:01:29;;;;;;;6.15;2.58;;;6.70;99.90;;;;;;4618173;31;20048;-76
2021/05/26 03:03:55;;;;;;;11.02;2.75;;;6.60;99.90;;;;;;4619632;31;20114;-77
2021/05/26 03:06:21;;;;;;;11.02;2.50;;;6.70;99.90;;;;;;4618906;31;20059;-76
2021/05/26 03:08:46;;;;;;;8.32;2.55;;;6.60;99.90;;;;;;4619288;31;20048;-77
2021/05/26 03:11:12;;;;;;;14.45;3.03;;;6.40;99.90;;;;;;4619264;31;20130;-77
2021/05/26 03:13:38;;;;;;;9.05;2.78;;;6.50;99.90;;;;;;4619746;31;20040;-77
2021/05/26 03:16:07;;;;;;;12.55;3.30;;;6.50;99.90;;;;;;4618903;31;20091;-77
2021/05/26 03:18:33;;;;;;;9.10;2.47;;;6.50;99.90;;;;;;4617724;31;20055;-77
2021/05/26 03:20:59;;;;;;;9.05;2.50;;;6.50;99.90;;;;;;4618752;31;20055;-76
2021/05/26 03:23:25;;;;;;;8.85;2.65;;;6.50;99.90;;;;;;4618823;31;20509;-77
2021/05/26 03:25:51;;;;;;;10.55;2.63;;;6.50;99.90;;;;;;4618979;31;20059;-76
2021/05/26 03:28:18;;;;;;;7.45;2.55;;;6.60;99.90;;;;;;4618686;31;20550;-76
2021/05/26 03:30:46;;;;;;;7.28;2.67;;;6.50;99.90;;;;;;4618385;31;20063;-77
2021/05/26 03:33:13;;;;;;;7.57;2.60;;;6.30;99.90;;;;;;4618930;31;20040;-77
2021/05/26 03:35:41;;;;;;;7.75;2.13;;;6.40;99.90;;;;;;4617503;31;20073;-77
2021/05/26 03:38:08;;;;;;;7.00;2.80;;;6.30;99.90;;;;;;4618555;31;20068;-76
2021/05/26 03:40:35;;;;;;;8.63;2.40;;;6.40;99.90;;;;;;4618824;31;20060;-76
2021/05/26 03:43:02;;;;;;;12.43;2.97;;;6.50;99.90;;;;;;4618584;31;20047;-76
2021/05/26 03:45:28;;;;;;;7.53;2.22;;;6.50;99.90;;;;;;4618690;31;20472;-76
2021/05/26 03:47:55;;;;;;;6.60;2.53;;;6.50;99.90;;;;;;4618443;31;20074;-76
2021/05/26 03:50:21;;;;;;;8.25;2.63;;;6.50;99.90;;;;;;4618782;31;20048;-76
2021/05/26 03:52:48;;;;;;;11.68;2.83;;;6.50;99.90;;;;;;4603621;31;20130;-76
2021/05/26 03:55:18;;;;;;;11.77;2.85;;;6.50;99.90;;;;;;4618576;31;20115;-76
2021/05/26 03:57:44;;;;;;;7.07;2.50;;;6.60;99.90;;;;;;4618535;31;20052;-76
2021/05/26 04:00:12;;;;;;;8.77;3.30;;;6.50;99.90;;;;;;4618335;31;20052;-76
2021/05/26 04:02:38;;;;;;;7.38;2.80;;;6.40;99.90;;;;;;4618446;31;20047;-76
2021/05/26 04:05:05;;;;;;;10.00;3.30;;;6.40;99.90;;;;;;4617937;31;20060;-77
2021/05/26 04:07:31;;;;;;;12.77;3.30;;;6.40;99.90;;;;;;4618855;31;20135;-76
2021/05/26 04:09:57;;;;;;;9.95;2.75;;;6.40;99.90;;;;;;4618257;31;20044;-77
2021/05/26 04:12:25;;;;;;;8.77;2.88;;;6.40;99.90;;;;;;4618303;31;20386;-76
2021/05/26 04:14:51;;;;;;;8.40;2.47;;;6.50;99.90;;;;;;4618219;31;20051;-77
2021/05/26 04:17:18;;;;;;;10.88;2.45;;;6.40;99.90;;;;;;4617951;31;20052;-76
2021/05/26 04:19:44;;;;;;;6.57;2.58;;;6.50;99.90;;;;;;4618191;31;20071;-77
2021/05/26 04:22:09;;;;;;;11.77;2.95;;;6.50;99.90;;;;;;4603135;31;20513;-77
2021/05/26 04:24:35;;;;;;;14.02;2.67;;;6.50;99.90;;;;;;4617801;31;20063;-77
2021/05/26 04:27:01;;;;;;;15.15;3.30;;;6.50;99.90;;;;;;4617835;31;20514;-77
2021/05/26 04:29:27;;;;;;;10.27;3.67;;;6.60;99.90;;;;;;4618101;31;20069;-76
2021/05/26 04:31:56;;;;;;;8.98;2.65;;;6.60;99.90;;;;;;4618492;31;20512;-77
2021/05/26 04:34:22;;;;;;;15.40;3.28;;;6.60;99.90;;;;;;4617781;31;20123;-77
2021/05/26 04:36:49;;;;;;;13.27;3.10;;;6.50;99.90;;;;;;4616440;31;20051;-77
2021/05/26 04:39:15;;;;;;;11.23;3.15;;;6.60;99.90;;;;;;4617845;31;20048;-76
2021/05/26 04:41:41;;;;;;;11.30;2.67;;;6.70;99.90;;;;;;4617854;31;20103;-77
2021/05/26 04:44:07;;;;;;;8.38;3.00;;;6.80;99.90;;;;;;4617969;31;20115;-76
2021/05/26 04:46:32;;;;;;;11.35;2.75;;;7.00;99.90;;;;;;4617755;31;20052;-76
2021/05/26 04:48:58;;;;;;;14.60;3.38;;;7.20;99.90;;;;;;4617676;31;20078;-76
2021/05/26 04:51:24;;;;;;;9.18;2.50;;;7.20;99.90;;;;;;4602531;31;20108;-77
2021/05/26 04:53:50;;;;;;;7.55;2.47;;;7.40;99.90;;;;;;4616367;31;20138;-77
2021/05/26 04:56:19;;;;;;;9.20;3.25;;;7.50;99.90;;;;;;4616343;31;20142;-76
2021/05/26 04:58:45;;;;;;;10.40;5.97;;;7.90;99.90;;;;;;4616514;31;20044;-77
2021/05/26 05:01:16;;;;;;;13.60;3.13;;;8.20;99.90;;;;;;4617487;31;20055;-77
2021/05/26 05:03:42;;;;;;;15.93;3.58;;;8.20;99.90;;;;;;4616337;31;20540;-76
2021/05/26 05:06:22;;;;;;;15.15;2.47;;;8.20;99.90;;;;;;4617271;31;20060;-76
2021/05/26 05:08:48;;;;;;;12.23;2.80;;;8.30;99.90;;;;;;4602674;31;20079;-76
2021/05/26 05:11:14;;;;;;;10.35;2.60;;;8.40;99.90;;;;;;4617175;31;20529;-77
2021/05/26 05:13:40;;;;;;;10.77;3.13;;;8.40;99.90;;;;;;4616169;31;20070;-76
2021/05/26 05:16:06;;;;;;;8.23;2.55;;;8.60;99.90;;;;;;4617002;31;20051;-77
2021/05/26 05:18:32;;;;;;;11.45;3.15;;;9.10;99.90;;;;;;4616248;31;20048;-76
2021/05/26 05:21:00;;;;;;;11.02;3.13;;;11.80;99.90;;;;;;4619608;31;20047;-77
2021/05/26 05:23:44;;;;;;;10.68;2.92;;;12.90;96.90;;;;;;4615871;31;20164;-77
2021/05/26 05:26:10;;;;;;;8.32;2.45;;;13.80;90.30;;;;;;4616678;31;20066;-77
2021/05/26 05:28:36;;;;;;;9.77;3.08;;;14.30;82.40;;;;;;4617067;31;20231;-77
2021/05/26 05:31:02;;;;;;;7.30;2.40;;;15.30;71.20;;;;;;4616947;31;20135;-77
2021/05/26 05:33:28;;;;;;;9.70;2.90;;;15.70;66.10;;;;;;4617001;31;20075;-77
2021/05/26 05:35:54;;;;;;;9.27;2.80;;;15.80;64.40;;;;;;4615745;31;20052;-77
2021/05/26 05:38:22;;;;;;;9.82;3.10;;;17.70;55.20;;;;;;4617045;31;20115;-77
2021/05/26 05:40:54;;;;;;;8.43;3.05;;;17.10;51.80;;;;;;4617125;31;20139;-77
2021/05/26 05:43:20;;;;;;;6.05;2.17;;;18.30;49.10;;;;;;4616853;31;20134;-79
2021/05/26 05:45:46;;;;;;;5.57;2.60;;;19.70;40.70;;;;;;4616146;31;20135;-74
2021/05/26 05:48:12;;;;;;;8.73;2.33;;;19.90;37.70;;;;;;4616553;30;20046;-75
2021/05/26 05:50:38;;;;;;;6.93;2.97;;;19.90;31.40;;;;;;4649805;30;20043;-73
2021/05/26 05:53:07;;;;;;;5.07;2.08;;;20.40;30.90;;;;;;4650262;30;20059;-72
2021/05/26 05:55:38;;;;;;;10.13;2.30;;;20.70;29.10;;;;;;4639384;30;20059;-74
2021/05/26 05:58:04;;;;;;;6.55;2.38;;;22.70;26.30;;;;;;4643829;30;20105;-74
2021/05/26 06:00:32;;;;;;;5.30;2.20;;;23.00;25.00;;;;;;4629244;30;20515;-72
2021/05/26 06:02:59;;;;;;;9.38;2.60;;;23.20;24.10;;;;;;4649514;30;20558;-73
2021/05/26 06:05:24;;;;;;;4.53;2.20;;;23.60;24.90;;;;;;4649682;30;20051;-73
2021/05/26 06:07:50;;;;;;;7.50;2.90;;;23.20;24.70;;;;;;4634756;30;20112;-74
2021/05/26 06:10:18;;;;;;;9.27;2.88;;;23.50;24.50;;;;;;4649707;30;20437;-74
2021/05/26 06:12:46;;;;;;;8.15;2.95;;;24.30;23.10;;;;;;4648344;30;20520;-74
2021/05/26 06:15:12;;;;;;;7.88;2.72;;;24.40;22.30;;;;;;4648483;30;20530;-74
2021/05/26 06:17:38;;;;;;;9.18;3.25;;;22.70;22.20;;;;;;4648250;30;20055;-74
2021/05/26 06:20:04;;;;;;;7.97;2.50;;;23.90;22.40;;;;;;4646256;30;20073;-74
2021/05/26 06:22:30;;;;;;;9.00;2.95;;;23.40;20.80;;;;;;4649622;30;20059;-74
2021/05/26 06:24:56;;;;;;;6.50;2.42;;;24.80;19.90;;;;;;4652091;30;20070;-73
2021/05/26 06:27:24;;;;;;;7.85;2.67;;;25.00;20.50;;;;;;4654715;30;20059;-73
2021/05/26 06:29:50;;;;;;;8.18;2.70;;;24.20;19.70;;;;;;4650765;30;20046;-74
2021/05/26 06:32:16;;;;;;;8.05;2.60;;;25.30;19.40;;;;;;4634664;30;20454;-74
2021/05/26 06:34:41;;;;;;;8.95;2.65;;;26.60;18.10;;;;;;4650034;30;20049;-73
2021/05/26 06:37:07;;;;;;;9.02;3.20;;;25.20;19.70;;;;;;4649900;30;20388;-74
2021/05/26 06:39:33;;;;;;;8.48;3.40;;;25.80;19.10;;;;;;4649641;30;20051;-74
2021/05/26 06:41:59;;;;;;;9.63;2.92;;;23.90;20.30;;;;;;4649632;30;20058;-74
2021/05/26 06:44:24;;;;;;;6.40;2.90;;;25.00;19.40;;;;;;4649482;30;20055;-74
2021/05/26 06:46:50;;;;;;;7.55;2.65;;;23.90;19.80;;;;;;4649594;30;20133;-74
2021/05/26 06:49:16;;;;;;;12.60;3.53;;;23.70;22.20;;;;;;4650009;30;20438;-74
2021/05/26 06:51:42;;;;;;;6.43;2.60;;;24.60;21.70;;;;;;4649841;30;20125;-75
2021/05/26 06:54:08;;;;;;;7.15;2.38;;;24.60;20.00;;;;;;4649794;30;20049;-74
2021/05/26 06:56:34;;;;;;;7.68;2.78;;;25.90;18.70;;;;;;4649436;30;20087;-73
2021/05/26 06:59:00;;;;;;;6.90;2.50;;;25.20;17.90;;;;;;4649520;30;20570;-74
2021/05/26 07:01:26;;;;;;;5.63;2.65;;;24.00;19.00;;;;;;4649748;30;20050;-73
2021/05/26 07:03:51;;;;;;;7.47;2.88;;;25.70;20.50;;;;;;4649712;30;20073;-73
2021/05/26 07:06:18;;;;;;;6.43;2.65;;;24.00;20.00;;;;;;4648992;30;20078;-74
2021/05/26 07:08:43;;;;;;;6.75;2.33;;;23.00;20.70;;;;;;4649133;30;20039;-74
2021/05/26 07:11:09;;;;;;;8.10;2.63;;;22.40;22.60;;;;;;4649383;30;20082;-73
2021/05/26 07:13:36;;;;;;;8.32;2.35;;;23.10;24.00;;;;;;4649659;30;20102;-73
2021/05/26 07:16:02;;;;;;;8.52;2.70;;;23.30;23.60;;;;;;4649570;30;20061;-74
2021/05/26 07:18:28;;;;;;;5.88;2.67;;;24.60;21.50;;;;;;4649607;30;20046;-73
2021/05/26 07:20:54;;;;;;;5.70;2.20;;;24.20;20.40;;;;;;4649050;30;20047;-74
2021/05/26 07:23:20;;;;;;;7.20;2.50;;;25.10;17.90;;;;;;4649562;30;20396;-73
2021/05/26 07:25:46;;;;;;;6.53;2.55;;;24.80;17.20;;;;;;4649620;30;20058;-73
2021/05/26 07:28:13;;;;;;;8.10;2.50;;;26.70;17.10;;;;;;4649543;30;20561;-74
2021/05/26 07:30:40;;;;;;;5.15;2.30;;;25.80;17.50;;;;;;4649819;30;20054;-73
2021/05/26 07:33:06;;;;;;;7.80;2.25;;;25.50;17.10;;;;;;4649316;30;20141;-73
2021/05/26 07:35:32;;;;;;;5.63;2.38;;;24.00;17.60;;;;;;4650552;30;20193;-73
2021/05/26 07:37:58;;;;;;;6.13;2.13;;;24.50;19.00;;;;;;4652721;30;20193;-73
2021/05/26 07:40:24;;;;;;;6.40;2.42;;;22.70;21.30;;;;;;4652461;30;20125;-74
2021/05/26 07:42:49;;;;;;;6.20;2.60;;;20.70;26.50;;;;;;4652964;30;20051;-73
2021/05/26 07:45:16;;;;;;;9.38;2.55;;;19.60;32.30;;;;;;4652293;30;20055;-74
2021/05/26 07:47:42;;;;;;;8.82;2.10;;;18.30;34.30;;;;;;4652631;30;20078;-73
2021/05/26 07:50:08;;;;;;;9.30;2.80;;;17.70;37.40;;;;;;4652392;30;20125;-74
2021/05/26 07:52:34;;;;;;;7.95;3.00;;;17.40;39.90;;;;;;4652203;30;20130;-73
2021/05/26 07:55:00;;;;;;;9.00;2.60;;;16.80;40.90;;;;;;4652425;30;20158;-73
2021/05/26 07:57:26;;;;;;;8.75;2.78;;;16.70;39.70;;;;;;4652017;30;20078;-73
2021/05/26 07:59:52;;;;;;;5.63;2.05;;;16.70;40.70;;;;;;4652329;30;20051;-73
2021/05/26 08:02:18;;;;;;;6.30;1.88;;;16.50;39.40;;;;;;4652410;30;20058;-73
2021/05/26 08:04:44;;;;;;;6.72;2.35;;;16.50;40.40;;;;;;4651883;30;20059;-73
2021/05/26 08:07:10;;;;;;;10.15;2.60;;;16.50;42.00;;;;;;4652315;30;20051;-73
2021/05/26 08:09:39;;;;;;;6.45;2.08;;;16.50;43.60;;;;;;4652350;30;20113;-73
2021/05/26 08:12:08;;;;;;;9.70;2.25;;;16.50;44.40;;;;;;4652500;30;20061;-73
2021/05/26 08:14:36;;;;;;;6.88;2.42;;;16.50;39.90;;;;;;4651938;30;20039;-73
2021/05/26 08:17:03;;;;;;;9.73;2.40;;;16.50;38.20;;;;;;4652190;30;20202;-73
2021/05/26 08:19:29;;;;;;;5.45;1.65;;;16.50;39.50;;;;;;4652255;30;20101;-73
2021/05/26 08:21:55;;;;;;;7.15;1.85;;;16.50;35.10;;;;;;4651920;30;20055;-73
2021/05/26 08:24:21;;;;;;;6.18;2.00;;;16.40;39.00;;;;;;4651989;30;20120;-73
2021/05/26 08:26:51;;;;;;;7.50;2.08;;;16.30;44.40;;;;;;4636683;30;20496;-73
2021/05/26 08:29:17;;;;;;;8.60;2.47;;;16.30;38.60;;;;;;4652293;30;20051;-73
2021/05/26 08:31:44;;;;;;;6.30;2.17;;;16.30;40.50;;;;;;4651912;30;20077;-75
2021/05/26 08:34:11;;;;;;;5.18;2.00;;;16.30;38.50;;;;;;4651513;30;20039;-76
2021/05/26 08:36:37;;;;;;;4.60;1.50;;;16.30;37.30;;;;;;4650688;30;20043;-75
2021/05/26 08:39:05;;;;;;;5.47;1.48;;;16.30;38.40;;;;;;4651883;30;20066;-75
2021/05/26 08:41:31;;;;;;;5.40;1.58;;;16.50;34.60;;;;;;4636573;30;20057;-75
2021/05/26 08:43:57;;;;;;;5.60;1.80;;;16.60;34.80;;;;;;4651966;30;20137;-75
2021/05/26 08:46:23;;;;;;;4.93;2.03;;;16.60;34.90;;;;;;4650749;30;20046;-75
2021/05/26 08:48:53;;;;;;;7.15;2.10;;;16.80;37.10;;;;;;4651684;30;20122;-75
2021/05/26 08:51:21;;;;;;;6.72;2.17;;;16.90;35.70;;;;;;4651233;30;20079;-76
2021/05/26 08:53:46;;;;;;;4.65;1.60;;;17.20;34.60;;;;;;4651475;30;20385;-75
2021/05/26 08:56:12;;;;;;;5.03;2.00;;;17.20;32.30;;;;;;4651495;30;20074;-76
2021/05/26 08:58:43;;;;;;;3.17;1.70;;;17.40;33.20;;;;;;4651762;30;20047;-75
2021/05/26 09:01:19;;;;;;;3.20;1.48;;;17.40;31.90;;;;;;4651376;30;20057;-80
2021/05/26 09:03:59;;;;;;;5.50;1.77;;;17.50;29.30;;;;;;4635172;30;20047;-78
2021/05/26 09:06:42;;;;;;;4.10;1.55;;;17.50;29.20;;;;;;4632462;31;20097;-74
2021/05/26 09:09:11;;;;;;;6.38;1.80;;;17.60;30.70;;;;;;4632548;31;20051;-75
2021/05/26 09:11:41;;;;;;;5.65;1.98;;;17.50;30.60;;;;;;4624397;31;20047;-74
2021/05/26 09:14:11;;;;;;;4.82;1.83;;;17.40;30.60;;;;;;4632735;31;20067;-74
2021/05/26 09:16:37;;;;;;;4.97;1.77;;;17.50;31.20;;;;;;4624342;31;20098;-74
2021/05/26 09:19:05;;;;;;;4.97;1.60;;;17.40;30.40;;;;;;4632728;31;20063;-74
2021/05/26 09:21:51;;;;;;;5.65;1.65;;;17.10;27.80;;;;;;4634101;30;20043;-74
2021/05/26 09:24:21;;;;;;;2.28;1.10;;;17.20;29.50;;;;;;4633819;31;20468;-74
2021/05/26 09:27:06;;;;;;;5.00;1.33;;;17.20;27.90;;;;;;4633269;30;20050;-75
2021/05/26 09:29:36;;;;;;;4.30;1.63;;;17.00;29.00;;;;;;4633694;31;20412;-76
2021/05/26 09:32:19;;;;;;;4.60;1.90;;;17.20;31.60;;;;;;4634020;31;20071;-75
2021/05/26 09:34:48;;;;;;;5.10;1.60;;;17.20;30.70;;;;;;4637329;31;20051;-73
2021/05/26 09:37:21;;;;;;;6.43;1.77;;;17.20;33.10;;;;;;4636687;31;20098;-77
2021/05/26 09:39:51;;;;;;;4.07;1.65;;;17.30;31.40;;;;;;4633476;31;20134;-73
2021/05/26 09:42:25;;;;;;;6.30;2.10;;;17.20;30.30;;;;;;4633031;31;20141;-73
2021/05/26 09:45:11;;;;;;;4.38;1.83;;;17.20;35.20;;;;;;4633193;31;20081;-74
2021/05/26 09:47:42;;;;;;;5.75;1.73;;;17.30;31.60;;;;;;4633003;31;20078;-74
2021/05/26 09:50:21;;;;;;;4.60;1.60;;;17.20;31.20;;;;;;4633542;31;20047;-74
2021/05/26 09:52:54;;;;;;;3.15;1.20;;;17.20;30.20;;;;;;4632818;31;20065;-75
2021/05/26 09:55:28;;;;;;;3.92;1.45;;;17.30;32.10;;;;;;4627677;31;20088;-74
2021/05/26 09:57:54;;;;;;;1.92;1.20;;;17.30;29.30;;;;;;4621191;31;20067;-74
2021/05/26 10:00:21;;;;;;;3.40;1.95;;;17.40;30.00;;;;;;4630800;31;20047;-74
2021/05/26 10:02:48;;;;;;;3.67;1.60;;;17.30;34.50;;;;;;4631095;31;20055;-74
2021/05/26 10:05:16;;;;;;;6.78;1.88;;;17.20;34.60;;;;;;4630877;31;20055;-75
2021/05/26 10:07:43;;;;;;;6.22;1.67;;;17.40;35.40;;;;;;4631289;31;20047;-75
2021/05/26 10:10:13;;;;;;;3.10;1.40;;;17.40;34.70;;;;;;4632195;31;20039;-74
2021/05/26 10:12:39;;;;;;;6.93;2.10;;;17.40;34.40;;;;;;4633205;31;20047;-75
2021/05/26 10:15:08;;;;;;;6.25;1.52;;;17.40;34.90;;;;;;4632988;31;20102;-74
2021/05/26 10:17:40;;;;;;;4.93;1.58;;;17.50;31.80;;;;;;4633267;30;20535;-75
2021/05/26 10:20:09;;;;;;;5.80;1.98;;;17.50;34.90;;;;;;4633152;31;20044;-74
2021/05/26 10:22:36;;;;;;;5.53;1.70;;;17.60;35.80;;;;;;4633141;31;20069;-74
2021/05/26 10:25:06;;;;;;;5.03;1.70;;;17.50;37.30;;;;;;4632750;30;20122;-74
2021/05/26 10:27:37;;;;;;;3.88;1.63;;;17.60;34.50;;;;;;4632872;31;20046;-74
2021/05/26 10:30:06;;;;;;;4.25;1.80;;;17.70;35.60;;;;;;4633278;31;20050;-74
2021/05/26 10:32:53;;;;;;;6.30;1.92;;;17.60;33.40;;;;;;4632797;31;20051;-74
2021/05/26 10:35:21;;;;;;;3.97;1.60;;;17.80;36.10;;;;;;4632816;31;20059;-74
2021/05/26 10:37:58;;;;;;;5.45;2.13;;;17.80;35.10;;;;;;4640348;30;20098;-74
2021/05/26 10:40:31;;;;;;;6.45;1.75;;;17.80;36.90;;;;;;4649714;30;20046;-74
2021/05/26 10:43:22;;;;;;;5.63;1.90;;;17.80;36.20;;;;;;4649690;30;20213;-75
2021/05/26 10:45:48;;;;;;;;;;;17.70;35.20;;;;;;4649177;30;20563;-75
2021/05/26 10:48:34;;;;;;;3.13;1.80;;;17.90;36.70;;;;;;4649738;30;19916;-72
2021/05/26 10:51:00;;;;;;;3.90;1.50;;;18.00;35.70;;;;;;4649519;30;20456;-74
2021/05/26 10:53:40;;;;;;;5.43;2.15;;;18.00;36.30;;;;;;4649796;30;20055;-74
2021/05/26 10:56:06;;;;;;;5.30;1.92;;;18.00;37.60;;;;;;4649492;30;20043;-76
2021/05/26 10:58:45;;;;;;;7.40;1.83;;;18.00;38.20;;;;;;4636087;30;20461;-76
2021/05/26 11:01:12;;;;;;;4.65;2.08;;;18.00;37.70;;;;;;4620100;31;20126;-76
2021/05/26 11:03:43;;;;;;;6.30;1.92;;;18.00;38.80;;;;;;4600756;31;20143;-76
2021/05/26 11:06:18;;;;;;;5.85;1.92;;;18.10;36.50;;;;;;4600476;31;20084;-75
2021/05/26 11:08:47;;;;;;;7.28;2.10;;;18.20;35.70;;;;;;4614012;31;20184;-77
2021/05/26 11:11:21;;;;;;;6.40;1.80;;;18.10;35.30;;;;;;4614984;31;20095;-76
2021/05/26 11:14:06;;;;;;;8.40;2.33;;;18.20;35.80;;;;;;4617455;31;20056;-77
2021/05/26 11:16:52;;;;;;;5.38;1.75;;;18.30;36.80;;;;;;4617997;31;20052;-77
2021/05/26 11:19:27;;;;;;;6.70;2.45;;;18.30;36.50;;;;;;4617768;31;20051;-77
2021/05/26 11:22:06;;;;;;;6.10;2.28;;;18.30;37.90;;;;;;4617409;31;20139;-77
2021/05/26 11:24:34;;;;;;;7.88;2.42;;;18.20;36.50;;;;;;4617724;31;20524;-77
2021/05/26 11:27:12;;;;;;;4.43;1.88;;;18.30;37.80;;;;;;4616872;31;20131;-77
2021/05/26 11:29:42;;;;;;;5.40;1.90;;;18.30;38.70;;;;;;4616580;31;20055;-77
2021/05/26 11:32:21;;;;;;;6.10;2.40;;;18.30;37.30;;;;;;4618772;31;20044;-77
2021/05/26 11:34:53;;;;;;;5.75;2.00;;;18.30;36.80;;;;;;4603420;31;20055;-77
2021/05/26 11:37:30;;;;;;;7.00;2.60;;;18.20;38.20;;;;;;4618598;31;20206;-77
2021/05/26 11:39:59;;;;;;;5.47;2.53;;;18.40;40.00;;;;;;4617720;31;20043;-77
2021/05/26 11:42:29;;;;;;;5.63;2.03;;;18.40;38.30;;;;;;4631498;30;20134;-76
2021/05/26 11:45:00;;;;;;;7.63;2.05;;;18.60;39.50;;;;;;4631772;30;20497;-77
2021/05/26 11:47:31;;;;;;;4.85;1.65;;;18.50;35.80;;;;;;4631158;30;20047;-77
2021/05/26 11:50:00;;;;;;;4.95;2.10;;;18.60;36.80;;;;;;4631300;31;20040;-77
2021/05/26 11:52:28;;;;;;;6.20;2.83;;;18.60;39.20;;;;;;4618669;31;20071;-77
2021/05/26 11:55:01;;;;;;;5.50;1.77;;;18.70;38.20;;;;;;4618587;31;20139;-77
2021/05/26 11:57:38;;;;;;;7.97;2.50;;;18.90;38.30;;;;;;4631281;30;20048;-77
2021/05/26 12:00:10;;;;;;;5.90;2.28;;;19.00;37.00;;;;;;4617508;31;20051;-77
2021/05/26 12:02:51;;;;;;;6.65;2.35;;;19.10;36.50;;;;;;4618565;31;20044;-76
2021/05/26 12:05:36;;;;;;;5.10;2.08;;;19.20;37.00;;;;;;4618347;31;20218;-77
2021/05/26 12:08:02;;;;;;;8.85;2.55;;;19.30;35.60;;;;;;4630997;30;20043;-77
2021/05/26 12:10:30;;;;;;;6.82;1.95;;;19.40;38.50;;;;;;4616928;31;20055;-77
2021/05/26 12:13:01;;;;;;;6.30;1.85;;;19.50;34.80;;;;;;4618456;31;20040;-77
2021/05/26 12:15:28;;;;;;;5.00;2.00;;;19.60;35.60;;;;;;4618072;31;20532;-77
2021/05/26 12:17:55;;;;;;;8.88;2.40;;;19.70;36.60;;;;;;4618125;31;20131;-77
2021/05/26 12:20:22;;;;;;;6.47;2.30;;;19.70;36.60;;;;;;4618358;31;20044;-77
2021/05/26 12:22:50;;;;;;;7.57;2.58;;;19.70;36.80;;;;;;4617917;31;20044;-77
2021/05/26 12:25:17;;;;;;;8.00;2.45;;;20.00;38.30;;;;;;4617668;31;20056;-77
2021/05/26 12:27:48;;;;;;;8.32;2.38;;;20.10;35.40;;;;;;4618050;31;20401;-75
2021/05/26 12:30:26;;;;;;;6.25;2.35;;;20.40;37.90;;;;;;4616555;31;20058;-75
2021/05/26 12:32:56;;;;;;;7.72;2.78;;;20.50;35.20;;;;;;4630505;31;20039;-74
2021/05/26 12:35:27;;;;;;;6.80;2.55;;;20.40;33.70;;;;;;4631036;30;20078;-75
2021/05/26 12:37:56;;;;;;;6.45;2.40;;;20.30;34.40;;;;;;4616464;31;20471;-74
2021/05/26 12:40:25;;;;;;;6.55;2.20;;;20.70;36.20;;;;;;4616611;31;20131;-74
2021/05/26 12:42:52;;;;;;;5.47;2.60;;;21.10;34.30;;;;;;4617693;31;20047;-74
2021/05/26 12:45:31;;;;;;;6.65;2.53;;;21.10;35.00;;;;;;4617594;31;20055;-74
2021/05/26 12:48:13;;;;;;;11.25;2.55;;;20.80;32.20;;;;;;4617749;31;20079;-74
2021/05/26 12:50:43;;;;;;;10.05;2.85;;;21.00;33.10;;;;;;4614605;31;20052;-74
2021/05/26 12:53:11;;;;;;;8.15;2.33;;;20.70;35.20;;;;;;4614389;31;20501;-74
2021/05/26 12:55:37;;;;;;;8.43;2.67;;;20.40;34.70;;;;;;4616194;31;20055;-74
2021/05/26 12:58:06;;;;;;;4.75;2.85;;;20.60;33.40;;;;;;4617582;31;20056;-74